createdAt,value
2019-04-29T00:02:28.073Z,13.31
2019-04-29T00:04:57.672Z,13.28
2019-04-29T00:07:27.364Z,13.29
2019-04-29T00:09:56.991Z,13.23
2019-04-29T00:12:26.955Z,13.16
2019-04-29T00:15:00.951Z,13.17
2019-04-29T00:17:32.178Z,13.22
2019-04-29T00:20:12.200Z,13.21
2019-04-29T00:22:41.794Z,13.22
2019-04-29T00:25:11.572Z,13.13
2019-04-29T00:27:41.198Z,13.15
2019-04-29T00:30:13.012Z,13.12
2019-04-29T00:32:42.620Z,13.18
2019-04-29T00:35:12.398Z,13.14
2019-04-29T00:37:52.321Z,13.08
2019-04-29T00:40:40.044Z,13.04
2019-04-29T00:43:15.437Z,12.98
2019-04-29T00:45:45.211Z,12.83
2019-04-29T00:48:14.814Z,12.84
2019-04-29T00:50:44.429Z,12.80
2019-04-29T00:53:14.030Z,12.71
2019-04-29T00:55:43.634Z,12.68
2019-04-29T00:58:13.216Z,12.63
2019-04-29T01:00:43.196Z,12.61
2019-04-29T01:03:13.558Z,12.59
2019-04-29T01:05:43.335Z,12.60
2019-04-29T01:08:12.923Z,12.60
2019-04-29T01:10:42.513Z,12.63
2019-04-29T01:13:12.115Z,12.63
2019-04-29T01:15:41.708Z,12.62
2019-04-29T01:18:11.475Z,12.60
2019-04-29T01:20:41.096Z,12.68
2019-04-29T01:23:10.717Z,12.69
2019-04-29T01:25:41.953Z,12.65
2019-04-29T01:28:25.302Z,12.63
2019-04-29T01:30:59.857Z,12.59
2019-04-29T01:33:29.462Z,12.57
2019-04-29T01:36:16.949Z,12.51
2019-04-29T01:38:48.839Z,12.48
2019-04-29T01:41:20.275Z,12.47
2019-04-29T01:44:00.552Z,12.47
2019-04-29T01:46:30.877Z,12.48
2019-04-29T01:49:00.536Z,12.49
2019-04-29T01:51:30.143Z,12.51
2019-04-29T01:53:59.801Z,12.50
2019-04-29T01:56:29.421Z,12.47
2019-04-29T01:58:59.014Z,12.48
2019-04-29T02:01:28.620Z,12.46
2019-04-29T02:03:58.216Z,12.41
2019-04-29T02:06:28.107Z,12.43
2019-04-29T02:08:57.773Z,12.41
2019-04-29T02:11:27.357Z,12.43
2019-04-29T02:13:56.960Z,12.42
2019-04-29T02:16:26.563Z,12.43
2019-04-29T02:18:56.174Z,12.42
2019-04-29T02:21:25.774Z,12.38
2019-04-29T02:23:57.008Z,12.28
2019-04-29T02:26:26.618Z,12.22
2019-04-29T02:28:56.212Z,12.17
2019-04-29T02:31:42.111Z,12.08
2019-04-29T02:34:11.771Z,12.03
2019-04-29T02:36:41.384Z,12.00
2019-04-29T02:39:20.126Z,11.92
2019-04-29T02:41:53.828Z,11.88
2019-04-29T02:44:23.411Z,11.92
2019-04-29T02:46:53.026Z,11.95
2019-04-29T02:49:22.632Z,11.96
2019-04-29T02:51:55.080Z,12.02
2019-04-29T02:54:26.325Z,12.09
2019-04-29T02:57:13.239Z,12.15
2019-04-29T02:59:44.471Z,12.19
2019-04-29T03:02:31.414Z,12.18
2019-04-29T03:05:17.340Z,12.25
2019-04-29T03:07:46.991Z,12.27
2019-04-29T03:10:16.985Z,12.31
2019-04-29T03:12:46.603Z,12.31
2019-04-29T03:15:20.781Z,12.34
2019-04-29T03:17:50.379Z,12.35
2019-04-29T03:20:24.462Z,12.37
2019-04-29T03:22:55.818Z,12.35
2019-04-29T03:25:25.420Z,12.30
2019-04-29T03:27:55.091Z,12.30
2019-04-29T03:30:24.692Z,12.31
2019-04-29T03:32:54.302Z,12.30
2019-04-29T03:35:23.888Z,12.29
2019-04-29T03:37:53.496Z,12.30
2019-04-29T03:40:23.114Z,12.29
2019-04-29T03:42:52.706Z,12.32
2019-04-29T03:45:22.313Z,12.34
2019-04-29T03:47:51.920Z,12.35
2019-04-29T03:50:21.523Z,12.35
2019-04-29T03:52:51.117Z,12.40
2019-04-29T03:55:38.324Z,12.43
2019-04-29T03:57:52.054Z,12.43
2019-04-29T04:00:22.002Z,12.44
2019-04-29T04:03:05.033Z,12.43
2019-04-29T04:05:51.281Z,12.39
2019-04-29T04:08:37.469Z,12.43
2019-04-29T04:11:07.076Z,12.43
2019-04-29T04:13:36.675Z,12.47
2019-04-29T04:16:07.921Z,12.46
2019-04-29T04:18:37.514Z,12.49
2019-04-29T04:21:07.186Z,12.57
2019-04-29T04:23:36.785Z,12.60
2019-04-29T04:26:06.399Z,12.68
2019-04-29T04:28:35.985Z,12.73
2019-04-29T04:31:07.007Z,12.76
2019-04-29T04:33:37.069Z,12.80
2019-04-29T04:36:06.675Z,12.79
2019-04-29T04:38:36.257Z,12.83
2019-04-29T04:41:07.503Z,12.85
2019-04-29T04:43:37.110Z,12.88
2019-04-29T04:46:06.716Z,12.89
2019-04-29T04:48:36.313Z,12.96
2019-04-29T04:51:05.917Z,13.02
2019-04-29T04:53:35.515Z,13.08
2019-04-29T04:56:05.189Z,13.15
2019-04-29T04:58:34.785Z,13.24
2019-04-29T05:01:04.406Z,13.30
2019-04-29T05:03:34.007Z,13.41
2019-04-29T05:06:03.614Z,13.50
2019-04-29T05:08:33.218Z,13.56
2019-04-29T05:11:02.846Z,13.63
2019-04-29T05:13:32.431Z,13.64
2019-04-29T05:16:02.047Z,13.65
2019-04-29T05:18:31.662Z,13.71
2019-04-29T05:21:01.267Z,13.74
2019-04-29T05:23:30.886Z,13.88
2019-04-29T05:26:00.488Z,14.05
2019-04-29T05:28:30.091Z,14.31
2019-04-29T05:30:59.725Z,14.66
2019-04-29T05:33:29.332Z,14.84
2019-04-29T05:36:15.273Z,14.85
2019-04-29T05:38:48.949Z,14.83
2019-04-29T05:41:18.931Z,14.75
2019-04-29T05:43:56.061Z,14.67
2019-04-29T05:46:27.304Z,14.60
2019-04-29T05:48:56.907Z,14.57
2019-04-29T05:51:30.611Z,14.62
2019-04-29T05:54:04.296Z,14.68
2019-04-29T05:56:33.915Z,14.78
2019-04-29T05:59:03.524Z,14.83
2019-04-29T06:01:33.132Z,14.87
2019-04-29T06:04:02.741Z,14.84
2019-04-29T06:06:32.370Z,14.80
2019-04-29T06:09:01.942Z,14.88
2019-04-29T06:11:31.549Z,14.99
2019-04-29T06:14:01.140Z,15.12
2019-04-29T06:16:30.760Z,15.29
2019-04-29T06:19:03.086Z,15.41
2019-04-29T06:21:31.750Z,15.60
2019-04-29T06:24:04.335Z,15.80
2019-04-29T06:26:32.679Z,15.88
2019-04-29T06:29:05.569Z,15.82
2019-04-29T06:31:33.599Z,15.59
2019-04-29T06:34:05.205Z,15.24
2019-04-29T06:36:34.615Z,14.98
2019-04-29T06:39:05.707Z,14.84
2019-04-29T06:41:35.328Z,14.80
2019-04-29T06:44:06.593Z,14.80
2019-04-29T06:46:36.282Z,14.77
2019-04-29T06:49:10.585Z,14.74
2019-04-29T06:51:37.251Z,14.87
2019-04-29T06:54:06.862Z,14.82
2019-04-29T06:56:36.491Z,14.65
2019-04-29T06:59:07.623Z,14.61
2019-04-29T07:01:38.629Z,14.61
2019-04-29T07:04:08.337Z,14.59
2019-04-29T07:06:37.955Z,14.60
2019-04-29T07:09:08.311Z,14.68
2019-04-29T07:11:38.578Z,14.80
2019-04-29T07:14:08.184Z,14.80
2019-04-29T07:16:37.809Z,14.70
2019-04-29T07:19:07.410Z,14.58
2019-04-29T07:21:37.091Z,14.49
2019-04-29T07:24:06.715Z,14.35
2019-04-29T07:26:36.317Z,14.27
2019-04-29T07:29:05.942Z,14.23
2019-04-29T07:31:35.566Z,14.28
2019-04-29T07:34:08.139Z,14.40
2019-04-29T07:36:36.526Z,14.52
2019-04-29T07:39:08.054Z,14.67
2019-04-29T07:41:37.656Z,14.87
2019-04-29T07:44:07.262Z,14.96
2019-04-29T07:47:00.253Z,15.09
2019-04-29T07:49:24.818Z,15.07
2019-04-29T07:51:54.441Z,14.94
2019-04-29T07:54:24.033Z,14.90
2019-04-29T07:56:53.632Z,14.85
2019-04-29T07:59:23.245Z,14.75
2019-04-29T08:01:55.787Z,14.73
2019-04-29T08:04:24.364Z,14.76
2019-04-29T08:06:55.305Z,14.80
2019-04-29T08:09:25.263Z,14.84
2019-04-29T08:11:55.717Z,14.85
2019-04-29T08:14:28.409Z,14.84
2019-04-29T08:16:58.016Z,14.90
2019-04-29T08:19:29.318Z,14.90
2019-04-29T08:21:58.971Z,14.77
2019-04-29T08:24:28.601Z,14.70
2019-04-29T08:26:58.192Z,14.63
2019-04-29T08:29:30.718Z,14.67
2019-04-29T08:32:02.206Z,14.65
2019-04-29T08:34:30.502Z,14.72
2019-04-29T08:37:00.119Z,14.84
2019-04-29T08:39:31.204Z,14.91
2019-04-29T08:42:03.728Z,15.04
2019-04-29T08:44:38.099Z,15.00
2019-04-29T08:47:23.625Z,15.02
2019-04-29T08:49:52.731Z,15.12
2019-04-29T08:52:22.329Z,15.18
2019-04-29T08:54:55.417Z,15.13
2019-04-29T08:57:23.271Z,15.08
2019-04-29T08:59:52.879Z,15.04
2019-04-29T09:02:34.348Z,14.97
2019-04-29T09:04:54.119Z,14.88
2019-04-29T09:07:23.826Z,14.85
2019-04-29T09:09:56.154Z,14.88
2019-04-29T09:12:29.035Z,14.85
2019-04-29T09:14:56.112Z,14.73
2019-04-29T09:17:25.717Z,14.68
2019-04-29T09:19:55.304Z,14.66
2019-04-29T09:22:26.545Z,14.61
2019-04-29T09:24:57.806Z,14.63
2019-04-29T09:27:27.436Z,14.67
2019-04-29T09:29:58.881Z,14.74
2019-04-29T09:32:28.667Z,14.70
2019-04-29T09:34:59.464Z,14.67
2019-04-29T09:37:29.249Z,14.67
2019-04-29T09:39:58.855Z,14.65
2019-04-29T09:42:31.076Z,14.62
2019-04-29T09:45:08.441Z,14.69
2019-04-29T09:47:38.055Z,14.76
2019-04-29T09:50:08.654Z,14.81
2019-04-29T09:52:38.277Z,14.91
2019-04-29T09:55:08.128Z,14.80
2019-04-29T09:57:37.734Z,14.74
2019-04-29T10:00:14.810Z,14.69
2019-04-29T10:02:46.129Z,14.53
2019-04-29T10:05:17.869Z,14.41
2019-04-29T10:07:47.540Z,14.27
2019-04-29T10:10:17.338Z,14.17
2019-04-29T10:12:46.998Z,14.11
2019-04-29T10:15:18.493Z,14.09
2019-04-29T10:17:50.789Z,14.10
2019-04-29T10:20:29.427Z,14.09
2019-04-29T10:22:59.051Z,14.08
2019-04-29T10:25:28.728Z,14.09
2019-04-29T10:27:58.341Z,14.10
2019-04-29T10:30:31.141Z,14.11
2019-04-29T10:33:00.929Z,14.11
2019-04-29T10:35:30.535Z,14.13
2019-04-29T10:38:02.911Z,14.14
2019-04-29T10:40:48.244Z,14.17
2019-04-29T10:43:19.520Z,14.18
2019-04-29T10:46:06.060Z,14.18
2019-04-29T10:48:40.247Z,14.18
2019-04-29T10:51:11.800Z,14.14
2019-04-29T10:53:41.413Z,14.17
2019-04-29T10:56:11.268Z,14.22
2019-04-29T10:58:40.863Z,14.30
2019-04-29T11:02:00.365Z,14.29
2019-04-29T11:04:18.594Z,14.27
2019-04-29T11:06:48.348Z,14.19
2019-04-29T11:09:22.458Z,14.22
2019-04-29T11:11:52.086Z,14.26
2019-04-29T11:14:24.663Z,14.38
2019-04-29T11:16:53.170Z,14.38
2019-04-29T11:19:22.778Z,14.33
2019-04-29T11:21:52.550Z,14.33
2019-04-29T11:24:32.334Z,14.32
2019-04-29T11:27:11.531Z,14.28
2019-04-29T11:29:35.814Z,14.23
2019-04-29T11:32:06.765Z,14.27
2019-04-29T11:34:38.018Z,14.30
2019-04-29T11:37:09.263Z,14.33
2019-04-29T11:39:38.859Z,14.35
2019-04-29T11:42:09.974Z,14.37
2019-04-29T11:44:39.738Z,14.33
2019-04-29T11:47:09.348Z,14.36
2019-04-29T11:49:40.579Z,14.41
2019-04-29T11:52:10.467Z,14.43
2019-04-29T11:54:40.197Z,14.46
2019-04-29T11:57:11.500Z,14.46
2019-04-29T11:59:51.602Z,14.42
2019-04-29T12:02:39.409Z,14.37
2019-04-29T12:04:56.159Z,14.38
2019-04-29T12:07:32.096Z,14.40
2019-04-29T12:09:57.130Z,14.41
2019-04-29T12:12:26.796Z,14.46
2019-04-29T12:15:01.548Z,14.44
2019-04-29T12:17:35.374Z,14.43
2019-04-29T12:20:13.146Z,14.43
2019-04-29T12:22:48.448Z,14.44
2019-04-29T12:25:14.347Z,14.48
2019-04-29T12:27:44.096Z,14.48
2019-04-29T12:30:16.941Z,14.49
2019-04-29T12:32:51.016Z,14.53
2019-04-29T12:35:30.169Z,14.58
2019-04-29T12:38:05.827Z,14.60
2019-04-29T12:40:50.163Z,14.62
2019-04-29T12:43:20.667Z,14.66
2019-04-29T12:45:53.682Z,14.70
2019-04-29T12:48:24.964Z,14.69
2019-04-29T12:50:57.452Z,14.69
2019-04-29T12:53:25.933Z,14.68
2019-04-29T12:55:57.229Z,14.70
2019-04-29T12:58:27.074Z,14.73
2019-04-29T13:01:01.231Z,14.76
2019-04-29T13:03:39.720Z,14.83
2019-04-29T13:06:09.581Z,14.86
2019-04-29T13:08:40.467Z,14.93
2019-04-29T13:11:10.231Z,15.02
2019-04-29T13:13:39.838Z,15.08
2019-04-29T13:16:20.196Z,15.09
2019-04-29T13:18:53.884Z,15.07
2019-04-29T13:21:21.189Z,15.07
2019-04-29T13:24:05.011Z,15.08
2019-04-29T13:26:28.164Z,15.06
2019-04-29T13:29:00.379Z,15.04
2019-04-29T13:31:37.493Z,15.09
2019-04-29T13:34:03.371Z,15.13
2019-04-29T13:36:29.176Z,15.18
2019-04-29T13:38:58.797Z,15.23
2019-04-29T13:41:28.760Z,15.24
2019-04-29T13:44:05.319Z,15.30
2019-04-29T13:46:51.246Z,15.32
2019-04-29T13:49:20.060Z,15.32
2019-04-29T13:51:51.411Z,15.35
2019-04-29T13:54:20.999Z,15.41
2019-04-29T13:56:56.166Z,15.35
2019-04-29T13:59:26.484Z,15.27
2019-04-29T14:02:05.623Z,15.27
2019-04-29T14:04:35.952Z,15.28
2019-04-29T14:10:51.126Z,15.18
2019-04-29T14:13:21.146Z,15.07
2019-04-29T14:15:50.524Z,15.05
2019-04-29T14:18:20.132Z,15.05
2019-04-29T14:20:51.781Z,15.08
2019-04-29T14:23:22.676Z,15.11
2019-04-29T14:25:52.321Z,15.14
2019-04-29T14:28:21.911Z,15.17
2019-04-29T14:30:51.527Z,15.15
2019-04-29T14:33:24.208Z,15.17
2019-04-29T14:35:55.786Z,15.23
2019-04-29T14:38:25.382Z,15.23
2019-04-29T14:40:55.018Z,15.22
2019-04-29T14:43:42.222Z,15.26
2019-04-29T14:46:17.288Z,15.35
2019-04-29T14:49:05.800Z,15.50
2019-04-29T14:51:36.904Z,15.58
2019-04-29T14:54:07.549Z,15.61
2019-04-29T14:56:37.265Z,15.59
2019-04-29T14:59:07.691Z,15.54
2019-04-29T15:01:39.105Z,15.54
2019-04-29T15:04:18.300Z,15.53
2019-04-29T15:06:44.585Z,15.54
2019-04-29T15:09:17.763Z,15.58
2019-04-29T15:11:47.474Z,15.61
2019-04-29T15:17:02.442Z,15.58
2019-04-29T15:19:49.256Z,15.60
2019-04-29T15:22:18.391Z,15.59
2019-04-29T15:24:48.011Z,15.61
2019-04-29T15:27:17.963Z,15.65
2019-04-29T15:29:47.581Z,15.62
2019-04-29T15:32:22.032Z,15.68
2019-04-29T15:34:49.778Z,15.70
2019-04-29T15:37:19.588Z,15.67
2019-04-29T15:39:49.202Z,15.58
2019-04-29T15:42:18.831Z,15.54
2019-04-29T15:44:51.623Z,15.49
2019-04-29T15:47:20.421Z,15.47
2019-04-29T15:49:50.013Z,15.48
2019-04-29T15:52:21.129Z,15.49
2019-04-29T15:54:52.424Z,15.52
2019-04-29T15:57:22.648Z,15.67
2019-04-29T15:59:58.634Z,15.68
2019-04-29T16:02:23.753Z,15.71
2019-04-29T16:05:04.645Z,15.73
2019-04-29T16:07:51.513Z,15.75
2019-04-29T16:10:24.233Z,15.78
2019-04-29T16:13:01.404Z,15.76
2019-04-29T16:15:31.011Z,15.82
2019-04-29T16:18:05.154Z,15.94
2019-04-29T16:20:31.973Z,16.03
2019-04-29T16:23:02.214Z,16.13
2019-04-29T16:25:31.889Z,16.22
2019-04-29T16:28:01.528Z,16.30
2019-04-29T16:30:31.996Z,16.34
2019-04-29T16:33:13.335Z,16.38
2019-04-29T16:35:34.817Z,16.25
2019-04-29T16:38:11.169Z,16.18
2019-04-29T16:40:39.251Z,16.14
2019-04-29T16:43:16.633Z,16.11
2019-04-29T16:45:55.444Z,16.16
2019-04-29T16:48:25.126Z,16.19
2019-04-29T16:50:54.808Z,16.25
2019-04-29T16:53:24.436Z,16.25
2019-04-29T16:55:54.092Z,16.34
2019-04-29T16:58:23.690Z,16.37
2019-04-29T17:00:54.874Z,16.40
2019-04-29T17:03:32.388Z,16.37
2019-04-29T17:10:46.966Z,16.26
2019-04-29T17:13:25.812Z,16.15
2019-04-29T17:15:55.433Z,16.05
2019-04-29T17:18:25.050Z,15.98
2019-04-29T17:21:21.891Z,15.94
2019-04-29T17:41:18.958Z,15.97
2019-04-29T18:06:41.622Z,15.82
2019-04-29T18:09:25.950Z,15.76
2019-04-29T18:19:12.036Z,15.71
2019-04-29T18:21:59.240Z,15.71
2019-04-29T19:15:46.989Z,15.26
2019-04-29T19:53:00.633Z,14.41
2019-04-29T20:07:09.025Z,14.02
2019-04-29T20:14:02.215Z,14.03
2019-04-29T20:17:20.866Z,13.97
2019-04-29T20:31:25.903Z,13.63
2019-04-29T20:47:22.124Z,13.60
2019-04-29T20:57:25.846Z,13.42
2019-04-29T21:01:18.444Z,13.30
2019-04-29T21:12:38.566Z,13.17
2019-04-29T21:25:17.524Z,12.82
2019-04-29T21:34:11.155Z,12.60
2019-04-29T21:37:01.729Z,12.52
2019-04-29T21:39:37.796Z,12.48
2019-04-29T21:42:29.765Z,12.48
2019-04-29T21:44:58.584Z,12.49
2019-04-29T21:47:32.061Z,12.42
2019-04-29T21:49:59.502Z,12.41
2019-04-29T21:52:29.108Z,12.42
2019-04-29T21:54:58.724Z,12.35
2019-04-29T21:57:28.327Z,12.37
2019-04-29T21:59:57.960Z,12.36
2019-04-29T22:02:27.536Z,12.31
2019-04-29T22:04:57.152Z,12.34
2019-04-29T22:07:26.757Z,12.31
2019-04-29T22:09:56.897Z,12.24
2019-04-29T22:12:26.499Z,12.19
2019-04-29T22:14:56.538Z,12.15
2019-04-29T22:17:32.801Z,12.10
2019-04-29T22:20:04.251Z,12.02
2019-04-29T22:22:30.709Z,11.99
2019-04-29T22:25:06.014Z,11.86
2019-04-29T22:27:38.747Z,11.80
2019-04-29T22:30:05.823Z,11.70
2019-04-29T22:32:35.518Z,11.63
2019-04-29T22:35:09.228Z,11.48
2019-04-29T22:37:38.839Z,11.41
2019-04-29T22:40:11.645Z,11.33
2019-04-29T22:42:48.888Z,11.25
2019-04-29T22:45:19.058Z,11.19
2019-04-29T22:47:48.654Z,11.17
2019-04-29T22:50:18.269Z,11.10
2019-04-29T22:52:47.875Z,11.07
2019-04-29T22:55:17.491Z,11.00
2019-04-29T22:57:47.087Z,11.00
2019-04-29T23:00:18.669Z,10.98
2019-04-29T23:02:48.257Z,10.73
2019-04-29T23:05:17.870Z,10.62
2019-04-29T23:07:47.481Z,10.55
2019-04-29T23:10:19.923Z,10.55
2019-04-29T23:12:49.325Z,10.54
2019-04-29T23:15:23.590Z,10.53
2019-04-29T23:17:50.903Z,10.55
2019-04-29T23:20:28.857Z,10.60
2019-04-29T23:22:58.814Z,10.53
2019-04-29T23:25:32.859Z,10.48
2019-04-29T23:28:02.455Z,10.50
2019-04-29T23:30:32.076Z,10.43
2019-04-29T23:33:01.669Z,10.36
2019-04-29T23:35:31.279Z,10.27
2019-04-29T23:38:04.182Z,10.25
2019-04-29T23:40:32.233Z,10.18
2019-04-29T23:43:01.852Z,10.12
2019-04-29T23:45:31.464Z,10.07
2019-04-29T23:48:01.060Z,10.05
2019-04-29T23:50:30.709Z,10.04
2019-04-29T23:53:00.306Z,10.02
2019-04-29T23:55:29.930Z,10.02
2019-04-29T23:58:03.862Z,9.93
